sensor_id;sensor_type;location;lat;lon;timestamp;temperature;humidity
5605;DHT22;9297;47.258;11.362;2024-03-08T02:34:56;3.40;89.80
5605;DHT22;9297;47.258;11.362;2024-03-08T02:37:23;3.40;89.00
5605;DHT22;9297;47.258;11.362;2024-03-08T02:39:50;3.40;88.90
5605;DHT22;9297;47.258;11.362;2024-03-08T02:42:17;3.40;88.90
5605;DHT22;9297;47.258;11.362;2024-03-08T02:44:44;3.40;88.90
5605;DHT22;9297;47.258;11.362;2024-03-08T02:47:11;3.40;89.50
5605;DHT22;9297;47.258;11.362;2024-03-08T02:49:38;3.40;89.40
5605;DHT22;9297;47.258;11.362;2024-03-08T02:52:06;3.30;89.10
5605;DHT22;9297;47.258;11.362;2024-03-08T02:54:33;3.30;90.10
5605;DHT22;9297;47.258;11.362;2024-03-08T02:57:00;3.20;91.10
5605;DHT22;9297;47.258;11.362;2024-03-08T02:59:27;3.10;89.90
5605;DHT22;9297;47.258;11.362;2024-03-08T03:01:54;3.10;90.80
5605;DHT22;9297;47.258;11.362;2024-03-08T03:04:21;3.20;90.20
5605;DHT22;9297;47.258;11.362;2024-03-08T03:06:48;3.00;90.50
5605;DHT22;9297;47.258;11.362;2024-03-08T03:09:16;3.10;90.40
5605;DHT22;9297;47.258;11.362;2024-03-08T03:11:44;3.20;89.50
5605;DHT22;9297;47.258;11.362;2024-03-08T03:14:11;3.20;89.70
5605;DHT22;9297;47.258;11.362;2024-03-08T03:16:38;3.20;89.80
5605;DHT22;9297;47.258;11.362;2024-03-08T03:19:05;3.20;89.90
5605;DHT22;9297;47.258;11.362;2024-03-08T03:21:32;3.10;90.40
5605;DHT22;9297;47.258;11.362;2024-03-08T03:23:59;3.10;90.20
5605;DHT22;9297;47.258;11.362;2024-03-08T03:26:27;3.00;91.00
5605;DHT22;9297;47.258;11.362;2024-03-08T03:28:54;3.00;91.40
5605;DHT22;9297;47.258;11.362;2024-03-08T03:31:21;3.00;90.80
5605;DHT22;9297;47.258;11.362;2024-03-08T03:33:48;3.10;91.50
5605;DHT22;9297;47.258;11.362;2024-03-08T03:36:15;3.10;91.20
5605;DHT22;9297;47.258;11.362;2024-03-08T03:38:43;3.10;91.50
5605;DHT22;9297;47.258;11.362;2024-03-08T03:41:10;3.10;92.00
5605;DHT22;9297;47.258;11.362;2024-03-08T03:43:39;3.00;91.00
5605;DHT22;9297;47.258;11.362;2024-03-08T03:46:06;2.90;91.70
5605;DHT22;9297;47.258;11.362;2024-03-08T03:48:33;2.90;91.40
5605;DHT22;9297;47.258;11.362;2024-03-08T03:51:00;2.90;91.70
5605;DHT22;9297;47.258;11.362;2024-03-08T03:53:27;2.90;91.30
5605;DHT22;9297;47.258;11.362;2024-03-08T03:55:54;2.80;91.10
5605;DHT22;9297;47.258;11.362;2024-03-08T03:58:22;2.80;90.80
5605;DHT22;9297;47.258;11.362;2024-03-08T04:00:50;2.80;89.70
5605;DHT22;9297;47.258;11.362;2024-03-08T04:03:17;3.00;89.30
5605;DHT22;9297;47.258;11.362;2024-03-08T04:05:46;2.90;89.30
5605;DHT22;9297;47.258;11.362;2024-03-08T04:08:13;2.90;89.70
5605;DHT22;9297;47.258;11.362;2024-03-08T04:10:40;2.80;90.10
5605;DHT22;9297;47.258;11.362;2024-03-08T04:13:07;2.80;90.00
5605;DHT22;9297;47.258;11.362;2024-03-08T04:15:34;2.80;89.20
5605;DHT22;9297;47.258;11.362;2024-03-08T04:18:02;2.70;89.00
5605;DHT22;9297;47.258;11.362;2024-03-08T04:20:30;2.70;89.80
5605;DHT22;9297;47.258;11.362;2024-03-08T04:22:57;2.50;90.70
5605;DHT22;9297;47.258;11.362;2024-03-08T04:25:23;2.50;92.60
5605;DHT22;9297;47.258;11.362;2024-03-08T04:27:50;2.60;92.00
5605;DHT22;9297;47.258;11.362;2024-03-08T04:30:17;2.50;91.20
5605;DHT22;9297;47.258;11.362;2024-03-08T04:32:45;2.50;91.30
5605;DHT22;9297;47.258;11.362;2024-03-08T04:35:13;2.60;92.00
5605;DHT22;9297;47.258;11.362;2024-03-08T04:37:40;2.60;90.40
5605;DHT22;9297;47.258;11.362;2024-03-08T04:40:08;2.60;90.80
5605;DHT22;9297;47.258;11.362;2024-03-08T04:42:36;2.60;90.60
5605;DHT22;9297;47.258;11.362;2024-03-08T04:45:04;2.50;91.00
5605;DHT22;9297;47.258;11.362;2024-03-08T04:47:31;2.50;90.60
5605;DHT22;9297;47.258;11.362;2024-03-08T04:49:58;2.50;91.50
5605;DHT22;9297;47.258;11.362;2024-03-08T04:52:27;2.50;91.20
5605;DHT22;9297;47.258;11.362;2024-03-08T04:54:54;2.60;90.70
5605;DHT22;9297;47.258;11.362;2024-03-08T04:57:21;2.60;91.00
5605;DHT22;9297;47.258;11.362;2024-03-08T04:59:48;2.60;91.80
5605;DHT22;9297;47.258;11.362;2024-03-08T05:02:16;2.60;92.10
5605;DHT22;9297;47.258;11.362;2024-03-08T05:04:43;2.60;91.40
5605;DHT22;9297;47.258;11.362;2024-03-08T05:07:10;2.60;91.80
5605;DHT22;9297;47.258;11.362;2024-03-08T05:09:38;2.60;92.30
5605;DHT22;9297;47.258;11.362;2024-03-08T05:12:05;2.60;91.60
5605;DHT22;9297;47.258;11.362;2024-03-08T05:14:33;2.60;91.70
5605;DHT22;9297;47.258;11.362;2024-03-08T05:17:00;2.50;92.10
5605;DHT22;9297;47.258;11.362;2024-03-08T05:19:27;2.40;92.70
5605;DHT22;9297;47.258;11.362;2024-03-08T05:21:57;2.40;93.30
5605;DHT22;9297;47.258;11.362;2024-03-08T05:24:24;2.30;94.90
5605;DHT22;9297;47.258;11.362;2024-03-08T05:26:52;2.40;94.40
5605;DHT22;9297;47.258;11.362;2024-03-08T05:29:19;2.30;94.60
5605;DHT22;9297;47.258;11.362;2024-03-08T05:31:47;2.40;93.80
5605;DHT22;9297;47.258;11.362;2024-03-08T05:34:14;2.50;93.30
5605;DHT22;9297;47.258;11.362;2024-03-08T05:36:41;2.40;93.70
5605;DHT22;9297;47.258;11.362;2024-03-08T05:39:09;2.40;93.40
5605;DHT22;9297;47.258;11.362;2024-03-08T05:41:40;2.40;92.80
5605;DHT22;9297;47.258;11.362;2024-03-08T05:44:09;2.50;92.30
5605;DHT22;9297;47.258;11.362;2024-03-08T05:46:36;2.50;92.00
5605;DHT22;9297;47.258;11.362;2024-03-08T05:49:03;2.50;92.20
5605;DHT22;9297;47.258;11.362;2024-03-08T05:51:31;2.50;92.10
5605;DHT22;9297;47.258;11.362;2024-03-08T05:53:58;2.50;92.70
5605;DHT22;9297;47.258;11.362;2024-03-08T05:56:24;2.60;92.40
5605;DHT22;9297;47.258;11.362;2024-03-08T05:58:51;2.70;91.80
5605;DHT22;9297;47.258;11.362;2024-03-08T06:01:20;2.70;91.90
5605;DHT22;9297;47.258;11.362;2024-03-08T06:03:47;2.80;91.60
5605;DHT22;9297;47.258;11.362;2024-03-08T06:06:14;6.90;99.90
5605;DHT22;9297;47.258;11.362;2024-03-08T06:08:42;7.00;99.90
5605;DHT22;9297;47.258;11.362;2024-03-08T06:11:09;7.30;99.90
5605;DHT22;9297;47.258;11.362;2024-03-08T06:13:40;7.80;99.90
5605;DHT22;9297;47.258;11.362;2024-03-08T06:16:07;8.60;95.10
5605;DHT22;9297;47.258;11.362;2024-03-08T06:18:35;7.20;69.20
5605;DHT22;9297;47.258;11.362;2024-03-08T06:21:02;6.00;72.80
5605;DHT22;9297;47.258;11.362;2024-03-08T06:23:30;5.40;76.10
5605;DHT22;9297;47.258;11.362;2024-03-08T06:25:57;4.90;78.50
5605;DHT22;9297;47.258;11.362;2024-03-08T06:28:24;4.50;81.80
5605;DHT22;9297;47.258;11.362;2024-03-08T06:30:51;4.40;82.50
5605;DHT22;9297;47.258;11.362;2024-03-08T06:33:18;4.20;83.40
5605;DHT22;9297;47.258;11.362;2024-03-08T06:35:46;4.10;84.20
5605;DHT22;9297;47.258;11.362;2024-03-08T06:38:16;4.00;84.70
5605;DHT22;9297;47.258;11.362;2024-03-08T06:40:43;3.80;84.90
5605;DHT22;9297;47.258;11.362;2024-03-08T06:43:10;3.70;86.00
5605;DHT22;9297;47.258;11.362;2024-03-08T06:45:40;3.70;86.60
5605;DHT22;9297;47.258;11.362;2024-03-08T06:48:07;3.60;86.80
5605;DHT22;9297;47.258;11.362;2024-03-08T06:50:34;3.60;87.70
5605;DHT22;9297;47.258;11.362;2024-03-08T06:53:03;3.60;85.60
5605;DHT22;9297;47.258;11.362;2024-03-08T06:55:30;3.60;86.20
5605;DHT22;9297;47.258;11.362;2024-03-08T06:57:57;3.50;85.60
5605;DHT22;9297;47.258;11.362;2024-03-08T07:00:24;3.40;87.00
5605;DHT22;9297;47.258;11.362;2024-03-08T07:02:51;3.50;88.30
5605;DHT22;9297;47.258;11.362;2024-03-08T07:05:18;3.50;87.70
5605;DHT22;9297;47.258;11.362;2024-03-08T07:07:45;3.40;87.80
5605;DHT22;9297;47.258;11.362;2024-03-08T07:10:14;3.50;87.90
5605;DHT22;9297;47.258;11.362;2024-03-08T07:12:41;3.60;87.30
5605;DHT22;9297;47.258;11.362;2024-03-08T07:15:08;3.50;87.80
5605;DHT22;9297;47.258;11.362;2024-03-08T07:17:35;3.70;88.40
5605;DHT22;9297;47.258;11.362;2024-03-08T07:20:02;3.80;86.80
5605;DHT22;9297;47.258;11.362;2024-03-08T07:22:29;3.80;85.50
5605;DHT22;9297;47.258;11.362;2024-03-08T07:24:56;3.80;86.10
5605;DHT22;9297;47.258;11.362;2024-03-08T07:27:25;3.70;87.10
5605;DHT22;9297;47.258;11.362;2024-03-08T07:29:52;3.80;86.10
5605;DHT22;9297;47.258;11.362;2024-03-08T07:32:34;3.70;89.00
5605;DHT22;9297;47.258;11.362;2024-03-08T07:35:01;3.60;90.20
5605;DHT22;9297;47.258;11.362;2024-03-08T07:37:28;3.70;90.20
5605;DHT22;9297;47.258;11.362;2024-03-08T07:39:55;3.80;88.90
5605;DHT22;9297;47.258;11.362;2024-03-08T07:42:22;3.90;88.10
5605;DHT22;9297;47.258;11.362;2024-03-08T07:44:51;4.00;85.40
5605;DHT22;9297;47.258;11.362;2024-03-08T07:47:18;4.10;86.10
5605;DHT22;9297;47.258;11.362;2024-03-08T07:49:48;4.00;87.40
5605;DHT22;9297;47.258;11.362;2024-03-08T07:52:15;4.00;87.40
5605;DHT22;9297;47.258;11.362;2024-03-08T07:54:42;4.00;88.90
5605;DHT22;9297;47.258;11.362;2024-03-08T07:57:09;4.10;88.30
5605;DHT22;9297;47.258;11.362;2024-03-08T07:59:36;4.00;88.90
5605;DHT22;9297;47.258;11.362;2024-03-08T08:02:05;4.20;88.20
5605;DHT22;9297;47.258;11.362;2024-03-08T08:04:32;4.30;87.30
5605;DHT22;9297;47.258;11.362;2024-03-08T08:06:59;4.30;87.30
5605;DHT22;9297;47.258;11.362;2024-03-08T08:09:26;4.40;88.10
5605;DHT22;9297;47.258;11.362;2024-03-08T08:11:53;4.40;88.50
5605;DHT22;9297;47.258;11.362;2024-03-08T08:14:20;4.60;88.40
5605;DHT22;9297;47.258;11.362;2024-03-08T08:16:47;4.60;88.20
5605;DHT22;9297;47.258;11.362;2024-03-08T08:19:16;4.70;89.30
5605;DHT22;9297;47.258;11.362;2024-03-08T08:21:43;4.60;91.60
5605;DHT22;9297;47.258;11.362;2024-03-08T08:24:10;4.70;88.40
5605;DHT22;9297;47.258;11.362;2024-03-08T08:26:37;4.70;88.50
5605;DHT22;9297;47.258;11.362;2024-03-08T08:29:06;4.80;89.00
5605;DHT22;9297;47.258;11.362;2024-03-08T08:31:33;4.90;88.20
5605;DHT22;9297;47.258;11.362;2024-03-08T08:34:00;5.10;85.90
5605;DHT22;9297;47.258;11.362;2024-03-08T08:36:28;5.10;85.00
5605;DHT22;9297;47.258;11.362;2024-03-08T08:38:55;5.30;83.90
5605;DHT22;9297;47.258;11.362;2024-03-08T08:41:22;5.40;83.40
5605;DHT22;9297;47.258;11.362;2024-03-08T08:43:49;5.40;79.30
5605;DHT22;9297;47.258;11.362;2024-03-08T08:46:34;5.50;77.30
5605;DHT22;9297;47.258;11.362;2024-03-08T08:49:01;5.40;76.20
5605;DHT22;9297;47.258;11.362;2024-03-08T08:51:29;5.50;75.80
5605;DHT22;9297;47.258;11.362;2024-03-08T08:53:56;5.50;76.40
5605;DHT22;9297;47.258;11.362;2024-03-08T08:56:23;5.60;78.50
5605;DHT22;9297;47.258;11.362;2024-03-08T08:58:50;5.80;77.40
5605;DHT22;9297;47.258;11.362;2024-03-08T09:01:17;5.80;75.90
5605;DHT22;9297;47.258;11.362;2024-03-08T09:03:44;6.00;77.30
5605;DHT22;9297;47.258;11.362;2024-03-08T09:06:11;6.20;75.10
5605;DHT22;9297;47.258;11.362;2024-03-08T09:08:39;6.20;75.20
5605;DHT22;9297;47.258;11.362;2024-03-08T09:11:06;6.30;72.50
5605;DHT22;9297;47.258;11.362;2024-03-08T09:13:33;6.30;72.70
5605;DHT22;9297;47.258;11.362;2024-03-08T09:16:02;6.50;73.70
5605;DHT22;9297;47.258;11.362;2024-03-08T09:18:29;6.60;73.30
5605;DHT22;9297;47.258;11.362;2024-03-08T09:20:56;6.60;67.90
5605;DHT22;9297;47.258;11.362;2024-03-08T09:23:23;6.80;66.00
5605;DHT22;9297;47.258;11.362;2024-03-08T09:25:52;6.90;63.90
5605;DHT22;9297;47.258;11.362;2024-03-08T09:28:19;7.00;63.20
5605;DHT22;9297;47.258;11.362;2024-03-08T09:30:46;7.00;60.50
5605;DHT22;9297;47.258;11.362;2024-03-08T09:33:25;7.10;60.00
5605;DHT22;9297;47.258;11.362;2024-03-08T09:35:52;7.40;59.60
5605;DHT22;9297;47.258;11.362;2024-03-08T09:38:19;7.50;58.30
5605;DHT22;9297;47.258;11.362;2024-03-08T09:40:46;7.70;58.00
5605;DHT22;9297;47.258;11.362;2024-03-08T09:43:14;7.80;57.20
5605;DHT22;9297;47.258;11.362;2024-03-08T09:45:42;7.90;58.40
5605;DHT22;9297;47.258;11.362;2024-03-08T09:48:11;7.90;57.70
5605;DHT22;9297;47.258;11.362;2024-03-08T09:50:38;8.00;58.00
5605;DHT22;9297;47.258;11.362;2024-03-08T09:53:05;8.00;57.40
5605;DHT22;9297;47.258;11.362;2024-03-08T09:55:32;8.10;56.20
5605;DHT22;9297;47.258;11.362;2024-03-08T09:58:00;8.20;55.10
5605;DHT22;9297;47.258;11.362;2024-03-08T10:00:30;8.30;54.90
5605;DHT22;9297;47.258;11.362;2024-03-08T10:03:01;8.50;54.60
5605;DHT22;9297;47.258;11.362;2024-03-08T10:05:28;8.50;54.90
5605;DHT22;9297;47.258;11.362;2024-03-08T10:07:55;8.70;54.90
5605;DHT22;9297;47.258;11.362;2024-03-08T10:10:22;8.80;55.30
5605;DHT22;9297;47.258;11.362;2024-03-08T10:12:49;9.00;52.70
5605;DHT22;9297;47.258;11.362;2024-03-08T10:15:16;8.90;52.30
5605;DHT22;9297;47.258;11.362;2024-03-08T10:17:44;9.00;52.20
5605;DHT22;9297;47.258;11.362;2024-03-08T10:20:15;9.00;50.00
5605;DHT22;9297;47.258;11.362;2024-03-08T10:22:42;9.10;49.20
5605;DHT22;9297;47.258;11.362;2024-03-08T10:25:23;9.10;49.70
5605;DHT22;9297;47.258;11.362;2024-03-08T10:27:50;9.10;50.30
5605;DHT22;9297;47.258;11.362;2024-03-08T10:30:17;9.40;48.20
5605;DHT22;9297;47.258;11.362;2024-03-08T10:32:46;9.50;48.00
5605;DHT22;9297;47.258;11.362;2024-03-08T10:35:13;9.50;47.60
5605;DHT22;9297;47.258;11.362;2024-03-08T10:37:45;9.70;47.90
5605;DHT22;9297;47.258;11.362;2024-03-08T10:40:16;9.70;46.90
5605;DHT22;9297;47.258;11.362;2024-03-08T10:42:51;9.80;46.50
5605;DHT22;9297;47.258;11.362;2024-03-08T10:45:26;9.80;46.20
5605;DHT22;9297;47.258;11.362;2024-03-08T10:48:04;9.80;46.20
5605;DHT22;9297;47.258;11.362;2024-03-08T10:50:35;10.00;47.10
5605;DHT22;9297;47.258;11.362;2024-03-08T10:53:03;10.20;48.10
5605;DHT22;9297;47.258;11.362;2024-03-08T10:55:33;10.30;47.00
5605;DHT22;9297;47.258;11.362;2024-03-08T10:58:00;10.20;45.80
5605;DHT22;9297;47.258;11.362;2024-03-08T11:00:27;10.40;45.70
5605;DHT22;9297;47.258;11.362;2024-03-08T11:02:54;10.50;46.50
5605;DHT22;9297;47.258;11.362;2024-03-08T11:05:36;10.60;46.20
5605;DHT22;9297;47.258;11.362;2024-03-08T11:08:05;10.60;44.80
5605;DHT22;9297;47.258;11.362;2024-03-08T11:10:32;10.70;45.20
5605;DHT22;9297;47.258;11.362;2024-03-08T11:12:59;11.00;44.90
5605;DHT22;9297;47.258;11.362;2024-03-08T11:15:26;11.40;44.90
5605;DHT22;9297;47.258;11.362;2024-03-08T11:17:58;11.60;43.60
5605;DHT22;9297;47.258;11.362;2024-03-08T11:20:27;11.80;43.40
5605;DHT22;9297;47.258;11.362;2024-03-08T11:23:01;11.80;43.20
5605;DHT22;9297;47.258;11.362;2024-03-08T11:25:35;11.90;43.70
5605;DHT22;9297;47.258;11.362;2024-03-08T11:28:16;12.10;44.70
5605;DHT22;9297;47.258;11.362;2024-03-08T11:30:45;12.10;43.50
5605;DHT22;9297;47.258;11.362;2024-03-08T11:33:13;12.10;41.30
5605;DHT22;9297;47.258;11.362;2024-03-08T11:35:40;12.40;42.60
5605;DHT22;9297;47.258;11.362;2024-03-08T11:38:09;12.60;42.50
5605;DHT22;9297;47.258;11.362;2024-03-08T11:40:36;12.50;41.20
5605;DHT22;9297;47.258;11.362;2024-03-08T11:43:04;12.70;40.70
5605;DHT22;9297;47.258;11.362;2024-03-08T11:45:31;12.80;40.40
5605;DHT22;9297;47.258;11.362;2024-03-08T11:47:59;12.90;41.10
5605;DHT22;9297;47.258;11.362;2024-03-08T11:50:26;13.00;39.30
5605;DHT22;9297;47.258;11.362;2024-03-08T11:52:53;13.20;39.50
5605;DHT22;9297;47.258;11.362;2024-03-08T11:55:28;13.50;40.60
5605;DHT22;9297;47.258;11.362;2024-03-08T11:58:00;13.70;38.60
5605;DHT22;9297;47.258;11.362;2024-03-08T12:00:27;13.90;37.50
5605;DHT22;9297;47.258;11.362;2024-03-08T12:03:05;14.00;38.40
5605;DHT22;9297;47.258;11.362;2024-03-08T12:05:33;14.20;37.70
5605;DHT22;9297;47.258;11.362;2024-03-08T12:08:00;14.30;36.30
5605;DHT22;9297;47.258;11.362;2024-03-08T12:10:29;14.30;36.80
5605;DHT22;9297;47.258;11.362;2024-03-08T12:12:58;14.40;36.90
5605;DHT22;9297;47.258;11.362;2024-03-08T12:15:26;14.40;36.60
5605;DHT22;9297;47.258;11.362;2024-03-08T12:17:54;15.10;37.30
5605;DHT22;9297;47.258;11.362;2024-03-08T12:20:26;15.20;33.50
5605;DHT22;9297;47.258;11.362;2024-03-08T12:22:54;15.40;35.40
5605;DHT22;9297;47.258;11.362;2024-03-08T12:25:21;15.30;32.30
5605;DHT22;9297;47.258;11.362;2024-03-08T12:27:49;15.20;34.20
5605;DHT22;9297;47.258;11.362;2024-03-08T12:30:22;15.50;34.70
5605;DHT22;9297;47.258;11.362;2024-03-08T12:32:53;15.80;32.60
5605;DHT22;9297;47.258;11.362;2024-03-08T12:35:20;16.00;32.20
5605;DHT22;9297;47.258;11.362;2024-03-08T12:37:49;15.20;32.30
5605;DHT22;9297;47.258;11.362;2024-03-08T12:40:16;14.90;37.30
5605;DHT22;9297;47.258;11.362;2024-03-08T12:42:44;15.00;34.00
5605;DHT22;9297;47.258;11.362;2024-03-08T12:45:12;15.30;33.70
5605;DHT22;9297;47.258;11.362;2024-03-08T12:47:39;15.70;33.20
5605;DHT22;9297;47.258;11.362;2024-03-08T12:50:07;15.50;32.70
5605;DHT22;9297;47.258;11.362;2024-03-08T12:52:34;15.40;33.00
5605;DHT22;9297;47.258;11.362;2024-03-08T12:55:06;14.80;33.80
5605;DHT22;9297;47.258;11.362;2024-03-08T12:57:34;14.80;33.00
5605;DHT22;9297;47.258;11.362;2024-03-08T13:00:03;14.80;33.80
5605;DHT22;9297;47.258;11.362;2024-03-08T13:02:31;15.00;33.80
5605;DHT22;9297;47.258;11.362;2024-03-08T13:04:58;15.70;43.50
5605;DHT22;9297;47.258;11.362;2024-03-08T13:07:28;15.60;38.20
5605;DHT22;9297;47.258;11.362;2024-03-08T13:09:57;16.20;39.00
5605;DHT22;9297;47.258;11.362;2024-03-08T13:12:24;16.30;42.30
5605;DHT22;9297;47.258;11.362;2024-03-08T13:14:51;16.10;35.80
5605;DHT22;9297;47.258;11.362;2024-03-08T13:17:27;15.80;40.80
5605;DHT22;9297;47.258;11.362;2024-03-08T13:19:55;15.90;34.50
5605;DHT22;9297;47.258;11.362;2024-03-08T13:22:22;15.90;34.10
5605;DHT22;9297;47.258;11.362;2024-03-08T13:24:49;16.00;38.50
5605;DHT22;9297;47.258;11.362;2024-03-08T13:27:20;16.50;41.70
5605;DHT22;9297;47.258;11.362;2024-03-08T13:29:47;16.10;33.20
5605;DHT22;9297;47.258;11.362;2024-03-08T13:32:14;15.90;32.80
5605;DHT22;9297;47.258;11.362;2024-03-08T13:34:42;16.10;31.90
5605;DHT22;9297;47.258;11.362;2024-03-08T13:37:10;16.10;33.50
5605;DHT22;9297;47.258;11.362;2024-03-08T13:39:37;15.90;31.50
5605;DHT22;9297;47.258;11.362;2024-03-08T13:42:05;16.70;37.00
5605;DHT22;9297;47.258;11.362;2024-03-08T13:44:32;17.40;35.20
5605;DHT22;9297;47.258;11.362;2024-03-08T13:46:59;17.60;36.20
5605;DHT22;9297;47.258;11.362;2024-03-08T13:49:26;17.60;35.70
5605;DHT22;9297;47.258;11.362;2024-03-08T13:51:53;17.70;34.60
5605;DHT22;9297;47.258;11.362;2024-03-08T13:54:25;19.10;34.20
5605;DHT22;9297;47.258;11.362;2024-03-08T13:56:52;19.20;25.30
5605;DHT22;9297;47.258;11.362;2024-03-08T13:59:19;20.30;27.90
5605;DHT22;9297;47.258;11.362;2024-03-08T14:01:46;21.60;26.30
5605;DHT22;9297;47.258;11.362;2024-03-08T14:04:18;21.60;21.90
5605;DHT22;9297;47.258;11.362;2024-03-08T14:06:46;21.20;18.00
5605;DHT22;9297;47.258;11.362;2024-03-08T14:09:16;21.00;20.50
5605;DHT22;9297;47.258;11.362;2024-03-08T14:11:46;22.50;18.90
5605;DHT22;9297;47.258;11.362;2024-03-08T14:14:13;21.60;15.40
5605;DHT22;9297;47.258;11.362;2024-03-08T14:16:40;24.10;16.70
5605;DHT22;9297;47.258;11.362;2024-03-08T14:19:10;24.60;19.60
5605;DHT22;9297;47.258;11.362;2024-03-08T14:21:37;26.00;19.70
5605;DHT22;9297;47.258;11.362;2024-03-08T14:24:04;24.50;11.90
5605;DHT22;9297;47.258;11.362;2024-03-08T14:26:31;23.70;11.90
5605;DHT22;9297;47.258;11.362;2024-03-08T14:29:00;20.70;14.60
5605;DHT22;9297;47.258;11.362;2024-03-08T14:31:27;17.90;19.10
5605;DHT22;9297;47.258;11.362;2024-03-08T14:33:57;16.80;22.50
5605;DHT22;9297;47.258;11.362;2024-03-08T14:36:26;15.80;25.40
5605;DHT22;9297;47.258;11.362;2024-03-08T14:38:59;14.90;26.30
5605;DHT22;9297;47.258;11.362;2024-03-08T14:41:26;14.60;27.00
5605;DHT22;9297;47.258;11.362;2024-03-08T14:43:56;14.10;28.00
5605;DHT22;9297;47.258;11.362;2024-03-08T14:46:30;13.90;29.50
5605;DHT22;9297;47.258;11.362;2024-03-08T14:48:57;13.20;28.70
5605;DHT22;9297;47.258;11.362;2024-03-08T14:51:26;13.60;30.20
5605;DHT22;9297;47.258;11.362;2024-03-08T14:53:53;13.30;29.90
5605;DHT22;9297;47.258;11.362;2024-03-08T14:56:20;13.00;30.00
5605;DHT22;9297;47.258;11.362;2024-03-08T14:58:47;13.20;31.20
5605;DHT22;9297;47.258;11.362;2024-03-08T15:01:17;13.20;32.30
5605;DHT22;9297;47.258;11.362;2024-03-08T15:03:48;12.80;31.40
5605;DHT22;9297;47.258;11.362;2024-03-08T15:06:18;12.70;32.20
5605;DHT22;9297;47.258;11.362;2024-03-08T15:08:45;12.60;32.50
5605;DHT22;9297;47.258;11.362;2024-03-08T15:11:12;12.40;32.90
5605;DHT22;9297;47.258;11.362;2024-03-08T15:13:40;12.40;32.60
5605;DHT22;9297;47.258;11.362;2024-03-08T15:16:08;12.30;34.30
5605;DHT22;9297;47.258;11.362;2024-03-08T15:18:41;12.40;33.60
5605;DHT22;9297;47.258;11.362;2024-03-08T15:21:09;12.30;34.00
5605;DHT22;9297;47.258;11.362;2024-03-08T15:23:36;12.20;33.10
5605;DHT22;9297;47.258;11.362;2024-03-08T15:26:04;12.30;33.60
5605;DHT22;9297;47.258;11.362;2024-03-08T15:28:31;12.30;33.80
5605;DHT22;9297;47.258;11.362;2024-03-08T15:30:58;12.20;33.90
5605;DHT22;9297;47.258;11.362;2024-03-08T15:33:25;12.20;34.30
5605;DHT22;9297;47.258;11.362;2024-03-08T15:35:52;12.20;34.20
5605;DHT22;9297;47.258;11.362;2024-03-08T15:38:22;12.00;33.70
5605;DHT22;9297;47.258;11.362;2024-03-08T15:40:49;12.00;35.00
5605;DHT22;9297;47.258;11.362;2024-03-08T15:43:16;11.90;35.00
5605;DHT22;9297;47.258;11.362;2024-03-08T15:45:43;11.80;35.20
5605;DHT22;9297;47.258;11.362;2024-03-08T15:48:11;12.00;35.60
5605;DHT22;9297;47.258;11.362;2024-03-08T15:50:38;11.90;35.50
5605;DHT22;9297;47.258;11.362;2024-03-08T15:53:05;12.00;35.70
5605;DHT22;9297;47.258;11.362;2024-03-08T15:55:36;12.00;35.30
5605;DHT22;9297;47.258;11.362;2024-03-08T15:58:03;12.00;35.10
5605;DHT22;9297;47.258;11.362;2024-03-08T16:00:30;12.20;35.10
5605;DHT22;9297;47.258;11.362;2024-03-08T16:02:57;12.50;35.50
5605;DHT22;9297;47.258;11.362;2024-03-08T16:05:24;12.40;34.30
5605;DHT22;9297;47.258;11.362;2024-03-08T16:07:51;12.30;35.20
5605;DHT22;9297;47.258;11.362;2024-03-08T16:10:18;12.40;35.10
5605;DHT22;9297;47.258;11.362;2024-03-08T16:12:46;12.30;35.00
5605;DHT22;9297;47.258;11.362;2024-03-08T16:15:13;12.20;35.90
5605;DHT22;9297;47.258;11.362;2024-03-08T16:17:40;12.00;35.40
5605;DHT22;9297;47.258;11.362;2024-03-08T16:20:08;12.00;35.80
5605;DHT22;9297;47.258;11.362;2024-03-08T16:22:35;12.10;35.90
5605;DHT22;9297;47.258;11.362;2024-03-08T16:25:02;12.20;36.10
5605;DHT22;9297;47.258;11.362;2024-03-08T16:27:29;12.20;35.70
5605;DHT22;9297;47.258;11.362;2024-03-08T16:29:58;11.80;36.10
5605;DHT22;9297;47.258;11.362;2024-03-08T16:32:24;11.70;37.20
5605;DHT22;9297;47.258;11.362;2024-03-08T16:34:51;11.50;37.80
5605;DHT22;9297;47.258;11.362;2024-03-08T16:37:19;11.30;37.70
5605;DHT22;9297;47.258;11.362;2024-03-08T16:39:46;11.20;38.00
5605;DHT22;9297;47.258;11.362;2024-03-08T16:42:13;11.00;39.00
5605;DHT22;9297;47.258;11.362;2024-03-08T16:44:40;11.00;38.80
5605;DHT22;9297;47.258;11.362;2024-03-08T16:47:08;11.00;38.70
5605;DHT22;9297;47.258;11.362;2024-03-08T16:49:35;10.90;38.80
5605;DHT22;9297;47.258;11.362;2024-03-08T16:52:02;10.80;39.60
5605;DHT22;9297;47.258;11.362;2024-03-08T16:54:29;10.70;39.10
5605;DHT22;9297;47.258;11.362;2024-03-08T16:57:13;10.60;39.90
5605;DHT22;9297;47.258;11.362;2024-03-08T16:59:40;10.50;39.80
5605;DHT22;9297;47.258;11.362;2024-03-08T17:02:09;10.60;40.30
5605;DHT22;9297;47.258;11.362;2024-03-08T17:04:36;10.50;40.20
5605;DHT22;9297;47.258;11.362;2024-03-08T17:07:04;10.40;40.60
5605;DHT22;9297;47.258;11.362;2024-03-08T17:09:31;10.30;41.20
5605;DHT22;9297;47.258;11.362;2024-03-08T17:12:02;10.30;41.50
5605;DHT22;9297;47.258;11.362;2024-03-08T17:14:29;10.30;41.60
5605;DHT22;9297;47.258;11.362;2024-03-08T17:16:57;10.30;41.40
5605;DHT22;9297;47.258;11.362;2024-03-08T17:19:25;10.20;41.00
5605;DHT22;9297;47.258;11.362;2024-03-08T17:21:55;10.20;41.50
5605;DHT22;9297;47.258;11.362;2024-03-08T17:24:24;10.20;41.40
5605;DHT22;9297;47.258;11.362;2024-03-08T17:26:52;10.20;41.30
5605;DHT22;9297;47.258;11.362;2024-03-08T17:29:22;10.10;42.40
5605;DHT22;9297;47.258;11.362;2024-03-08T17:31:49;10.10;42.30
5605;DHT22;9297;47.258;11.362;2024-03-08T17:34:16;10.10;42.10
5605;DHT22;9297;47.258;11.362;2024-03-08T17:36:49;10.00;41.60
5605;DHT22;9297;47.258;11.362;2024-03-08T17:39:16;9.90;42.80
5605;DHT22;9297;47.258;11.362;2024-03-08T17:41:45;10.00;42.90
5605;DHT22;9297;47.258;11.362;2024-03-08T17:44:12;10.10;43.30
5605;DHT22;9297;47.258;11.362;2024-03-08T17:46:39;10.00;42.90
5605;DHT22;9297;47.258;11.362;2024-03-08T17:49:06;10.10;43.00
5605;DHT22;9297;47.258;11.362;2024-03-08T17:51:36;9.90;43.20
5605;DHT22;9297;47.258;11.362;2024-03-08T17:54:07;9.90;43.30
5605;DHT22;9297;47.258;11.362;2024-03-08T17:56:34;10.00;43.00
5605;DHT22;9297;47.258;11.362;2024-03-08T17:59:01;10.00;42.90
5605;DHT22;9297;47.258;11.362;2024-03-08T18:01:32;9.80;43.80
5605;DHT22;9297;47.258;11.362;2024-03-08T18:04:00;9.90;43.90
5605;DHT22;9297;47.258;11.362;2024-03-08T18:06:27;9.90;43.30
5605;DHT22;9297;47.258;11.362;2024-03-08T18:08:54;9.80;43.50
5605;DHT22;9297;47.258;11.362;2024-03-08T18:11:22;9.80;43.00
5605;DHT22;9297;47.258;11.362;2024-03-08T18:14:23;9.90;43.30
5605;DHT22;9297;47.258;11.362;2024-03-08T18:18:00;9.80;43.50
5605;DHT22;9297;47.258;11.362;2024-03-08T18:59:24;9.70;44.10
5605;DHT22;9297;47.258;11.362;2024-03-08T19:39:17;9.70;44.00
5605;DHT22;9297;47.258;11.362;2024-03-08T19:48:40;9.60;44.40
5605;DHT22;9297;47.258;11.362;2024-03-08T19:51:11;9.60;44.70
5605;DHT22;9297;47.258;11.362;2024-03-08T19:53:38;9.60;45.10
5605;DHT22;9297;47.258;11.362;2024-03-08T19:56:09;9.40;47.40
5605;DHT22;9297;47.258;11.362;2024-03-08T19:58:37;9.30;48.30